Time;durP1;ratioP1;P1;durP2;ratioP2;P2;SDS_P1;SDS_P2;PMS_P1;PMS_P2;Temp;Humidity;BMP_temperature;BMP_pressure;BME280_temperature;BME280_humidity;BME280_pressure;Samples;Min_cycle;Max_cycle;Signal;HPM_P1;HPM_P2
2023/02/14 00:01:10;;;;;;;23.00;17.80;;;6.90;99.90;;;;;;5016971;28;20513;-88
2023/02/14 00:03:36;;;;;;;22.77;18.67;;;;;;;;;;5015748;28;20199;-89
2023/02/14 00:06:11;;;;;;;21.83;17.90;;;6.90;99.90;;;;;;5017061;28;20212;-89
2023/02/14 00:08:39;;;;;;;22.97;18.43;;;;;;;;;;5030023;28;20190;-88
2023/02/14 00:11:07;;;;;;;23.50;17.60;;;;;;;;;;5016501;28;20176;-89
2023/02/14 00:13:33;;;;;;;33.10;24.23;;;;;;;;;;5019436;28;20187;-89
2023/02/14 00:15:59;;;;;;;33.90;25.53;;;;;;;;;;5034795;28;20651;-89
2023/02/14 00:21:10;;;;;;;26.77;21.17;;;;;;;;;;5034690;28;20226;-90
2023/02/14 00:23:36;;;;;;;28.17;20.93;;;;;;;;;;5017048;28;20218;-89
2023/02/14 00:26:02;;;;;;;28.47;22.20;;;;;;;;;;5017936;28;20180;-89
2023/02/14 00:28:28;;;;;;;30.70;24.17;;;;;;;;;;5038353;28;20176;-90
2023/02/14 00:30:56;;;;;;;25.03;19.97;;;;;;;;;;5038791;28;20179;-90
2023/02/14 00:33:22;;;;;;;28.00;20.50;;;;;;;;;;5022134;28;20171;-91
2023/02/14 00:35:48;;;;;;;27.17;21.33;;;;;;;;;;5025148;28;20612;-89
2023/02/14 00:38:14;;;;;;;27.77;21.13;;;;;;;;;;5016103;28;21030;-89
2023/02/14 00:40:40;;;;;;;24.50;19.03;;;;;;;;;;5034240;28;20222;-89
2023/02/14 00:43:06;;;;;;;23.73;19.20;;;;;;;;;;5022532;28;20199;-89
2023/02/14 00:45:32;;;;;;;25.27;19.97;;;;;;;;;;5018232;28;20176;-89
2023/02/14 00:47:58;;;;;;;23.87;18.97;;;;;;;;;;5019331;28;20228;-88
2023/02/14 00:50:24;;;;;;;25.70;20.60;;;;;;;;;;5016703;28;20176;-90
2023/02/14 00:52:50;;;;;;;27.73;20.30;;;;;;;;;;5020693;28;20184;-92
2023/02/14 00:55:16;;;;;;;28.33;22.27;;;;;;;;;;5016513;28;20183;-90
2023/02/14 00:57:42;;;;;;;27.00;21.93;;;;;;;;;;5018606;28;20234;-90
2023/02/14 01:00:09;;;;;;;29.03;21.40;;;;;;;;;;5017322;28;20235;-90
2023/02/14 01:02:35;;;;;;;32.40;22.73;;;;;;;;;;5016355;28;20289;-90
2023/02/14 01:05:01;;;;;;;28.00;21.90;;;;;;;;;;5015922;28;20180;-90
2023/02/14 01:07:27;;;;;;;35.43;25.50;;;;;;;;;;5024246;28;20186;-90
2023/02/14 01:09:53;;;;;;;31.80;23.57;;;;;;;;;;5016174;28;20186;-90
2023/02/14 01:12:19;;;;;;;32.63;22.97;;;;;;;;;;5015311;28;20175;-90
2023/02/14 01:14:45;;;;;;;45.30;25.43;;;;;;;;;;5016212;28;20179;-90
2023/02/14 01:17:11;;;;;;;32.57;24.03;;;;;;;;;;5016276;28;20657;-91
2023/02/14 01:19:37;;;;;;;30.07;23.00;;;;;;;;;;5024028;28;20180;-91
2023/02/14 01:22:03;;;;;;;29.83;22.77;;;;;;;;;;5016398;28;20171;-89
2023/02/14 01:24:29;;;;;;;33.63;24.50;;;;;;;;;;5017444;28;20179;-90
2023/02/14 01:26:55;;;;;;;32.77;24.70;;;;;;;;;;5019649;28;20180;-90
2023/02/14 01:29:21;;;;;;;29.47;19.70;;;;;;;;;;5015883;28;20172;-90
2023/02/14 01:31:48;;;;;;;23.53;19.10;;;;;;;;;;5024169;28;20219;-90
2023/02/14 01:34:14;;;;;;;23.70;18.27;;;;;;;;;;5015562;28;20180;-90
2023/02/14 01:36:40;;;;;;;19.23;16.33;;;;;;;;;;5023822;28;20455;-88
2023/02/14 01:39:07;;;;;;;20.20;16.57;;;;;;;;;;5023628;28;20218;-89
2023/02/14 01:41:35;;;;;;;22.13;17.77;;;;;;;;;;5033460;28;20179;-89
2023/02/14 01:44:03;;;;;;;21.33;16.43;;;;;;;;;;5032727;28;20204;-88
2023/02/14 01:46:31;;;;;;;18.80;15.67;;;;;;;;;;5023627;28;20262;-89
2023/02/14 01:49:07;;;;;;;17.53;15.20;;;;;;;;;;5023794;28;20531;-90
2023/02/14 01:51:36;;;;;;;17.30;14.73;;;5.20;99.90;;;;;;5029204;28;20183;-87
2023/02/14 01:54:03;;;;;;;18.13;14.20;;;;;;;;;;5039478;28;20186;-88
2023/02/14 01:56:33;;;;;;;19.33;16.47;;;;;;;;;;5056487;28;20196;-89
2023/02/14 01:59:00;;;;;;;17.67;15.17;;;;;;;;;;5033139;28;20198;-89
2023/02/14 02:01:27;;;;;;;18.20;14.10;;;;;;;;;;5015413;28;20203;-88
2023/02/14 02:03:55;;;;;;;16.53;13.97;;;;;;;;;;5019447;28;20706;-89
2023/02/14 02:06:41;;;;;;;16.73;14.33;;;;;;;;;;5022898;28;20528;-87
2023/02/14 02:09:26;;;;;;;17.03;14.40;;;;;;;;;;5014366;28;20566;-89
2023/02/14 02:11:52;;;;;;;18.33;14.87;;;;;;;;;;5015145;28;20168;-88
2023/02/14 02:14:19;;;;;;;16.77;14.13;;;;;;;;;;5015285;28;20523;-89
2023/02/14 02:17:04;;;;;;;15.70;13.73;;;;;;;;;;5015374;28;20184;-89
2023/02/14 02:19:51;;;;;;;17.47;14.87;;;4.80;99.90;;;;;;5008870;28;20233;-88
2023/02/14 02:22:17;;;;;;;17.23;13.70;;;;;;;;;;5014751;28;20722;-89
2023/02/14 02:25:19;;;;;;;18.50;15.30;;;;;;;;;;5032958;28;20223;-89
2023/02/14 02:28:11;;;;;;;18.47;14.77;;;;;;;;;;4966021;28;20564;-88
2023/02/14 02:30:39;;;;;;;18.53;15.00;;;;;;;;;;4961001;28;20190;-88
2023/02/14 02:33:08;;;;;;;16.80;14.03;;;;;;;;;;4971249;28;20232;-88
2023/02/14 02:35:43;;;;;;;18.17;15.03;;;;;;;;;;4954980;28;20189;-88
2023/02/14 02:38:19;;;;;;;16.93;14.77;;;;;;;;;;4962885;28;20216;-88
2023/02/14 02:40:57;;;;;;;18.67;14.43;;;;;;;;;;4954825;28;20236;-88
2023/02/14 02:43:33;;;;;;;17.83;14.27;;;;;;;;;;4970126;28;20311;-87
2023/02/14 02:48:52;;;;;;;20.13;15.97;;;;;;;;;;4971215;28;20554;-88
2023/02/14 02:54:27;;;;;;;21.90;16.10;;;;;;;;;;4971143;28;20641;-87
2023/02/14 02:56:55;;;;;;;21.47;16.60;;;;;;;;;;4955360;28;20205;-87
2023/02/14 02:59:23;;;;;;;22.63;17.13;;;;;;;;;;4962831;28;20240;-88
2023/02/14 03:02:13;;;;;;;19.93;16.13;;;;;;;;;;4976327;28;20622;-89
2023/02/14 03:04:53;;;;;;;39.70;19.07;;;;;;;;;;5025996;28;20678;-89
2023/02/14 03:07:39;;;;;;;21.53;17.23;;;;;;;;;;5013692;28;20237;-89
2023/02/14 03:10:08;;;;;;;22.83;17.00;;;;;;;;;;5031666;28;20504;-88
2023/02/14 03:12:44;;;;;;;22.90;16.27;;;;;;;;;;5031532;28;20241;-88
2023/02/14 03:15:25;;;;;;;22.43;17.23;;;;;;;;;;5013452;28;20275;-88
2023/02/14 03:18:01;;;;;;;24.97;17.60;;;;;;;;;;5013769;28;20241;-87
2023/02/14 03:20:39;;;;;;;23.80;17.43;;;;;;;;;;5031731;28;20519;-88
2023/02/14 03:23:16;;;;;;;19.97;16.23;;;;;;;;;;5024990;28;20249;-89
2023/02/14 03:25:42;;;;;;;21.20;16.00;;;;;;;;;;5029337;28;20179;-89
2023/02/14 03:28:27;;;;;;;22.80;17.27;;;;;;;;;;5020751;28;20229;-89
2023/02/14 03:31:12;;;;;;;21.00;16.67;;;;;;;;;;5020907;28;20307;-89
2023/02/14 03:33:38;;;;;;;21.40;16.53;;;;;;;;;;5021179;28;20186;-90
2023/02/14 03:36:09;;;;;;;20.23;16.27;;;;;;;;;;5017673;28;20173;-88
2023/02/14 03:38:41;;;;;;;24.00;16.37;;;;;;;;;;5017617;28;20187;-90
2023/02/14 03:41:11;;;;;;;20.23;16.83;;;;;;;;;;5017064;28;20172;-90
2023/02/14 03:43:40;;;;;;;42.50;18.27;;;;;;;;;;5017393;28;20204;-88
2023/02/14 03:46:10;;;;;;;29.57;17.20;;;;;;;;;;5016697;28;20180;-89
2023/02/14 03:48:37;;;;;;;47.00;19.47;;;;;;;;;;5018246;28;20432;-89
2023/02/14 03:51:04;;;;;;;21.67;16.13;;;;;;;;;;5021250;28;20183;-89
2023/02/14 03:53:32;;;;;;;34.80;18.70;;;;;;;;;;5025352;28;20203;-89
2023/02/14 03:56:07;;;;;;;20.37;16.00;;;;;;;;;;5016913;28;20225;-89
2023/02/14 03:58:38;;;;;;;21.90;16.57;;;;;;;;;;5017401;28;20183;-89
2023/02/14 04:01:20;;;;;;;22.83;16.13;;;;;;;;;;5017608;28;20230;-89
2023/02/14 04:03:47;;;;;;;59.30;19.63;;;;;;;;;;5017319;28;20461;-90
2023/02/14 04:06:13;;;;;;;38.27;19.83;;;;;;;;;;5017011;28;20180;-90
2023/02/14 04:08:39;;;;;;;24.77;17.33;;;;;;;;;;5018175;28;20794;-91
2023/02/14 04:11:06;;;;;;;21.70;16.13;;;;;;;;;;5020951;28;20555;-89
2023/02/14 04:13:32;;;;;;;22.27;16.30;;;;;;;;;;5024683;28;20643;-89
2023/02/14 04:15:58;;;;;;;21.73;16.73;;;;;;;;;;5016882;28;20500;-92
2023/02/14 04:21:08;;;;;;;24.03;17.60;;;;;;;;;;5035357;28;20410;-91
2023/02/14 04:23:34;;;;;;;22.47;16.57;;;;;;;;;;5017137;28;20202;-90
2023/02/14 04:26:02;;;;;;;22.97;17.67;;;;;;;;;;5016999;28;20172;-91
2023/02/14 04:28:28;;;;;;;23.77;17.50;;;;;;;;;;5016518;28;20192;-89
2023/02/14 04:30:54;;;;;;;26.17;18.60;;;;;;;;;;5034381;28;20172;-90
2023/02/14 04:33:20;;;;;;;23.57;18.07;;;;;;;;;;5024586;28;20182;-90
2023/02/14 04:35:47;;;;;;;23.60;17.20;;;4.60;99.90;;;;;;5016995;28;20549;-90
2023/02/14 04:38:13;;;;;;;23.70;16.87;;;;;;;;;;5016676;28;20183;-91
2023/02/14 04:40:47;;;;;;;22.37;16.13;;;;;;;;;;5017001;28;20183;-92
2023/02/14 04:43:13;;;;;;;21.93;17.00;;;;;;;;;;5016662;28;20206;-91
2023/02/14 04:45:39;;;;;;;23.03;17.00;;;;;;;;;;5025151;28;20294;-91
2023/02/14 04:48:05;;;;;;;22.67;17.03;;;;;;;;;;5016955;28;20258;-91
2023/02/14 04:50:31;;;;;;;22.63;16.70;;;;;;;;;;5024503;28;20198;-89
2023/02/14 04:52:57;;;;;;;22.30;16.87;;;;;;;;;;5019774;28;20186;-91
2023/02/14 04:55:23;;;;;;;24.93;17.80;;;;;;;;;;5018036;28;20608;-90
2023/02/14 04:57:49;;;;;;;24.30;17.93;;;;;;;;;;5016606;28;20229;-90
2023/02/14 05:00:15;;;;;;;23.20;17.90;;;;;;;;;;5016072;28;20245;-90
2023/02/14 05:02:41;;;;;;;22.83;16.70;;;;;;;;;;5016110;28;20276;-90
2023/02/14 05:05:07;;;;;;;23.00;17.20;;;;;;;;;;5016498;28;20229;-90
2023/02/14 05:07:34;;;;;;;24.07;17.80;;;;;;;;;;5024475;28;20616;-90
2023/02/14 05:10:00;;;;;;;22.20;17.27;;;;;;;;;;5019738;28;20175;-89
2023/02/14 05:12:26;;;;;;;24.97;18.27;;;;;;;;;;5024506;28;20603;-89
2023/02/14 05:14:52;;;;;;;26.63;19.00;;;;;;;;;;5015376;28;20545;-90
2023/02/14 05:17:18;;;;;;;27.23;19.37;;;;;;;;;;5023442;28;20210;-90
2023/02/14 05:19:44;;;;;;;25.37;18.37;;;;;;;;;;5016065;28;20172;-89
2023/02/14 05:22:10;;;;;;;27.80;20.00;;;;;;;;;;5020752;28;20176;-90
2023/02/14 05:24:36;;;;;;;26.17;18.40;;;;;;;;;;5023975;28;20550;-90
2023/02/14 05:27:02;;;;;;;23.57;17.80;;;;;;;;;;5017868;28;20172;-90
2023/02/14 05:29:28;;;;;;;27.47;18.37;;;;;;;;;;5024668;28;20175;-90
2023/02/14 05:31:54;;;;;;;23.50;17.37;;;;;;;;;;5024806;28;20171;-89
2023/02/14 05:34:20;;;;;;;25.47;17.87;;;;;;;;;;5026377;28;20175;-90
2023/02/14 05:36:46;;;;;;;22.10;17.77;;;;;;;;;;5026139;28;20172;-90
2023/02/14 05:39:13;;;;;;;22.20;17.43;;;;;;;;;;5026890;28;20172;-90
2023/02/14 05:41:40;;;;;;;21.43;16.27;;;;;;;;;;5018793;28;20535;-90
2023/02/14 05:44:06;;;;;;;21.30;16.47;;;;;;;;;;5026312;28;20204;-90
2023/02/14 05:46:32;;;;;;;22.67;17.10;;;;;;;;;;5018081;28;21204;-88
2023/02/14 05:48:59;;;;;;;22.20;16.97;;;;;;;;;;5018710;28;20223;-90
2023/02/14 05:51:25;;;;;;;21.20;16.57;;;;;;;;;;5024685;28;20210;-91
2023/02/14 05:53:51;;;;;;;24.20;17.37;;;;;;;;;;5018142;28;20172;-88
2023/02/14 05:56:17;;;;;;;21.97;17.50;;;;;;;;;;5023483;28;20176;-90
2023/02/14 05:58:43;;;;;;;23.47;17.00;;;;;;;;;;5036137;28;20250;-88
2023/02/14 06:01:09;;;;;;;20.73;16.67;;;;;;;;;;5018325;28;20196;-88
2023/02/14 06:03:35;;;;;;;21.33;16.50;;;;;;;;;;5018362;28;20257;-88
2023/02/14 06:06:01;;;;;;;23.53;16.20;;;;;;;;;;5018350;28;20262;-88
2023/02/14 06:08:27;;;;;;;22.20;16.87;;;;;;;;;;5036028;28;20180;-90
2023/02/14 06:10:53;;;;;;;20.57;15.97;;;;;;;;;;5019759;28;20198;-90
2023/02/14 06:13:19;;;;;;;21.17;15.67;;;;;;;;;;5019994;28;20179;-89
2023/02/14 06:15:45;;;;;;;17.80;13.63;;;;;;;;;;5020834;28;20635;-89
2023/02/14 06:18:11;;;;;;;19.67;14.30;;;;;;;;;;5020910;28;20203;-90
2023/02/14 06:20:37;;;;;;;17.60;13.50;;;;;;;;;;5032249;28;20197;-89
2023/02/14 06:23:03;;;;;;;17.63;12.93;;;;;;;;;;5037429;28;20211;-88
2023/02/14 06:25:29;;;;;;;27.37;19.47;;;;;;;;;;5047014;28;20199;-87
2023/02/14 06:27:56;;;;;;;26.00;18.00;;;;;;;;;;5038828;28;20165;-89
2023/02/14 06:30:22;;;;;;;26.33;19.67;;;;;;;;;;5038665;28;20199;-88
2023/02/14 06:32:52;;;;;;;23.03;17.43;;;;;;;;;;5039186;28;20156;-90
2023/02/14 06:35:18;;;;;;;22.57;16.70;;;;;;;;;;5039393;28;20164;-91
2023/02/14 06:37:44;;;;;;;22.50;17.00;;;;;;;;;;5037148;28;20238;-90
2023/02/14 06:40:11;;;;;;;21.70;15.47;;;;;;;;;;5034807;28;20172;-91
2023/02/14 06:42:37;;;;;;;21.43;14.63;;;;;;;;;;5039358;28;20194;-90
2023/02/14 06:45:17;;;;;;;18.30;13.37;;;;;;;;;;5027613;28;20577;-91
2023/02/14 06:47:44;;;;;;;16.47;12.27;;;;;;;;;;5019204;28;20179;-91
2023/02/14 06:50:11;;;;;;;19.03;14.80;;;;;;;;;;5019001;28;20172;-91
2023/02/14 06:52:37;;;;;;;19.03;13.93;;;;;;;;;;5018757;28;20180;-91
2023/02/14 06:55:03;;;;;;;16.10;12.60;;;;;;;;;;5013604;28;20647;-91
2023/02/14 06:57:29;;;;;;;20.30;14.67;;;;;;;;;;5017078;28;20186;-90
2023/02/14 06:59:55;;;;;;;17.63;12.73;;;;;;;;;;5018527;28;20519;-90
2023/02/14 07:02:21;;;;;;;46.43;30.80;;;;;;;;;;5035382;28;20202;-90
2023/02/14 07:04:47;;;;;;;21.23;15.20;;;;;;;;;;5023159;28;20191;-91
2023/02/14 07:07:14;;;;;;;20.87;15.00;;;5.10;99.90;;;;;;5035225;28;20174;-90
2023/02/14 07:09:40;;;;;;;22.37;16.87;;;;;;;;;;5018731;28;20176;-90
2023/02/14 07:12:06;;;;;;;19.17;14.17;;;;;;;;;;5018587;28;20245;-90
2023/02/14 07:14:32;;;;;;;19.60;15.10;;;;;;;;;;5018434;28;20201;-90
2023/02/14 07:16:58;;;;;;;19.93;14.57;;;;;;;;;;5018130;28;20171;-89
2023/02/14 07:19:24;;;;;;;18.80;14.80;;;;;;;;;;5018083;28;20179;-89
2023/02/14 07:21:50;;;;;;;19.17;14.07;;;;;;;;;;5018196;28;20172;-90
2023/02/14 07:24:16;;;;;;;30.67;16.00;;;;;;;;;;5018111;28;20265;-91
2023/02/14 07:26:42;;;;;;;18.67;14.13;;;;;;;;;;5018676;28;20593;-92
2023/02/14 07:29:08;;;;;;;20.20;15.17;;;;;;;;;;5018951;28;20242;-91
2023/02/14 07:31:34;;;;;;;81.90;51.43;;;;;;;;;;5018566;28;20174;-90
2023/02/14 07:34:00;;;;;;;26.47;18.70;;;;;;;;;;5017962;28;20505;-90
2023/02/14 07:36:26;;;;;;;16.93;14.10;;;;;;;;;;5017751;28;20172;-91
2023/02/14 07:38:53;;;;;;;19.90;14.73;;;;;;;;;;5017778;28;20182;-89
2023/02/14 07:41:19;;;;;;;27.73;20.13;;;;;;;;;;5018089;28;20266;-90
2023/02/14 07:43:44;;;;;;;18.20;14.30;;;;;;;;;;5016680;28;20284;-91
2023/02/14 07:46:11;;;;;;;18.43;13.80;;;;;;;;;;5017403;28;20643;-91
2023/02/14 07:48:38;;;;;;;19.17;14.27;;;;;;;;;;5017240;28;20172;-90
2023/02/14 07:51:04;;;;;;;18.37;14.13;;;;;;;;;;5016741;28;20290;-90
2023/02/14 07:53:30;;;;;;;17.70;13.20;;;4.60;99.90;;;;;;5018910;28;20195;-89
2023/02/14 07:55:56;;;;;;;15.50;11.97;;;;;;;;;;5018665;28;20172;-88
2023/02/14 07:58:22;;;;;;;15.27;11.90;;;;;;;;;;5017131;28;20253;-90
2023/02/14 08:00:49;;;;;;;15.43;11.70;;;;;;;;;;5017552;28;20191;-90
2023/02/14 08:03:15;;;;;;;14.77;11.90;;;;;;;;;;5035439;28;20710;-90
2023/02/14 08:05:42;;;;;;;15.40;12.07;;;;;;;;;;5018182;28;20183;-91
2023/02/14 08:08:08;;;;;;;16.20;12.13;;;;;;;;;;5017145;28;20191;-89
2023/02/14 08:10:34;;;;;;;14.87;11.23;;;;;;;;;;5018036;28;20183;-89
2023/02/14 08:13:00;;;;;;;14.77;11.07;;;;;;;;;;5020515;28;20176;-90
2023/02/14 08:18:19;;;;;;;17.80;13.10;;;5.30;99.90;;;;;;5034759;28;20176;-90
2023/02/14 08:20:47;;;;;;;16.70;12.53;;;;;;;;;;5017057;28;20232;-90
2023/02/14 08:23:13;;;;;;;14.33;11.63;;;5.30;99.90;;;;;;5017234;28;20761;-90
2023/02/14 08:25:39;;;;;;;15.53;11.50;;;;;;;;;;5016694;28;20180;-89
2023/02/14 08:28:06;;;;;;;18.20;12.73;;;;;;;;;;5017087;28;20171;-90
2023/02/14 08:30:32;;;;;;;14.47;11.67;;;;;;;;;;5016898;28;20175;-90
2023/02/14 08:32:58;;;;;;;16.57;12.13;;;;;;;;;;5016842;28;20202;-91
2023/02/14 08:35:24;;;;;;;17.23;12.10;;;;;;;;;;5017131;28;20172;-90
2023/02/14 08:37:50;;;;;;;16.57;11.83;;;;;;;;;;5016893;28;20240;-89
2023/02/14 08:40:16;;;;;;;15.53;12.53;;;;;;;;;;5017151;28;20176;-89
2023/02/14 08:42:42;;;;;;;16.57;12.63;;;;;;;;;;5013914;28;20875;-89
2023/02/14 08:45:08;;;;;;;20.80;12.53;;;;;;;;;;5015338;28;20612;-91
2023/02/14 08:47:37;;;;;;;17.20;12.67;;;;;;;;;;5016095;28;20210;-90
2023/02/14 08:50:03;;;;;;;16.53;12.00;;;;;;;;;;5015536;28;20182;-89
2023/02/14 08:52:29;;;;;;;17.80;12.97;;;;;;;;;;5017625;28;20274;-89
2023/02/14 08:54:55;;;;;;;17.23;13.30;;;;;;;;;;5024996;28;20247;-91
2023/02/14 08:57:21;;;;;;;51.63;14.07;;;;;;;;;;5015598;28;20168;-89
2023/02/14 08:59:48;;;;;;;36.53;15.37;;;;;;;;;;5014016;28;20172;-89
2023/02/14 09:02:15;;;;;;;23.87;12.50;;;;;;;;;;5017184;28;20192;-90
2023/02/14 09:04:43;;;;;;;22.03;18.37;;;;;;;;;;5016069;28;20180;-90
2023/02/14 09:07:11;;;;;;;15.13;12.00;;;;;;;;;;5015845;28;20636;-89
2023/02/14 09:09:37;;;;;;;26.93;13.17;;;;;;;;;;5015917;28;20172;-90
2023/02/14 09:12:04;;;;;;;18.70;13.63;;;;;;;;;;5015990;28;20203;-90
2023/02/14 09:14:30;;;;;;;16.80;12.10;;;;;;;;;;5017652;28;20172;-90
2023/02/14 09:16:56;;;;;;;27.67;12.80;;;;;;;;;;5016044;28;20179;-90
2023/02/14 09:19:22;;;;;;;30.27;13.53;;;;;;;;;;5015181;28;20175;-89
2023/02/14 09:21:48;;;;;;;16.80;12.57;;;;;;;;;;5016285;28;20179;-89
2023/02/14 09:24:14;;;;;;;16.70;12.67;;;;;;;;;;5016796;28;20294;-89
2023/02/14 09:26:42;;;;;;;16.77;12.60;;;;;;;;;;5015701;28;20261;-91
2023/02/14 09:29:10;;;;;;;38.40;15.80;;;;;;;;;;5016250;28;20632;-90
2023/02/14 09:31:37;;;;;;;15.53;12.10;;;;;;;;;;5018600;28;20272;-91
2023/02/14 09:39:32;;;;;;;18.07;12.83;;;;;;;;;;5033323;28;20527;-90
2023/02/14 09:42:14;;;;;;;18.27;12.97;;;;;;;;;;5033456;28;20171;-90
2023/02/14 09:44:51;;;;;;;16.63;11.70;;;;;;;;;;5034382;28;20683;-89
2023/02/14 09:47:25;;;;;;;20.57;13.20;;;;;;;;;;5005503;28;20198;-90
2023/02/14 09:49:53;;;;;;;25.67;13.10;;;5.00;99.90;;;;;;5015214;28;20172;-90
2023/02/14 09:52:20;;;;;;;29.27;14.60;;;;;;;;;;5033500;28;20179;-91
2023/02/14 09:54:50;;;;;;;19.20;13.83;;;;;;;;;;5015307;28;20194;-90
2023/02/14 09:57:22;;;;;;;16.47;13.00;;;;;;;;;;5016930;28;20179;-89
2023/02/14 09:59:48;;;;;;;25.30;13.73;;;;;;;;;;5019361;28;20195;-88
2023/02/14 10:02:21;;;;;;;16.57;12.63;;;;;;;;;;5040894;28;20199;-87
2023/02/14 10:04:53;;;;;;;23.03;13.67;;;;;;;;;;5024341;28;20252;-88
2023/02/14 10:07:38;;;;;;;19.03;13.90;;;;;;;;;;5016983;28;20168;-88
2023/02/14 10:10:18;;;;;;;20.47;14.53;;;;;;;;;;5006916;28;20169;-88
2023/02/14 10:12:49;;;;;;;36.10;16.10;;;;;;;;;;5015088;28;20171;-88
2023/02/14 10:15:21;;;;;;;19.83;14.10;;;;;;;;;;5016939;28;20167;-88
2023/02/14 10:18:11;;;;;;;17.87;13.33;;;;;;;;;;5016861;28;20263;-89
2023/02/14 10:20:46;;;;;;;18.70;13.30;;;;;;;;;;5029172;28;20258;-88
2023/02/14 10:23:30;;;;;;;18.87;13.13;;;;;;;;;;5031648;28;20215;-89
2023/02/14 10:26:01;;;;;;;18.03;13.47;;;;;;;;;;5031617;28;20182;-89
2023/02/14 10:28:32;;;;;;;17.13;12.33;;;;;;;;;;5017020;28;20167;-88
2023/02/14 10:31:16;;;;;;;18.50;13.40;;;6.10;99.90;;;;;;5023746;28;20519;-90
2023/02/14 10:33:44;;;;;;;15.47;12.20;;;;;;;;;;5020830;28;20619;-89
2023/02/14 10:36:24;;;;;;;18.43;13.90;;;;;;;;;;5032746;28;20607;-88
2023/02/14 10:38:50;;;;;;;18.53;14.57;;;;;;;;;;5014985;28;20266;-92
2023/02/14 10:41:16;;;;;;;18.90;13.77;;;;;;;;;;5014739;28;20632;-91
2023/02/14 10:43:54;;;;;;;16.63;13.63;;;;;;;;;;5014329;28;20198;-90
2023/02/14 10:46:32;;;;;;;18.23;14.03;;;;;;;;;;5033209;28;20176;-89
2023/02/14 10:49:16;;;;;;;19.63;13.67;;;;;;;;;;5014322;28;20221;-88
2023/02/14 10:51:55;;;;;;;20.23;14.47;;;;;;;;;;5014519;28;20183;-89
2023/02/14 10:54:24;;;;;;;19.13;14.53;;;;;;;;;;5032374;28;20171;-89
2023/02/14 10:57:02;;;;;;;21.20;15.37;;;;;;;;;;5033932;28;20174;-88
2023/02/14 10:59:33;;;;;;;19.83;14.10;;;;;;;;;;5052190;28;20514;-89
2023/02/14 11:02:00;;;;;;;19.40;14.37;;;;;;;;;;5034240;28;20232;-89
2023/02/14 11:04:26;;;;;;;18.87;13.70;;;;;;;;;;5016249;28;20231;-89
2023/02/14 11:06:52;;;;;;;19.30;14.03;;;;;;;;;;5013736;28;20183;-88
2023/02/14 11:09:19;;;;;;;20.27;14.67;;;;;;;;;;5014275;28;20262;-88
2023/02/14 11:11:50;;;;;;;26.10;19.17;;;;;;;;;;5017255;28;20225;-90
2023/02/14 11:14:21;;;;;;;18.13;14.43;;;;;;;;;;5019835;28;20516;-89
2023/02/14 11:16:50;;;;;;;19.90;15.07;;;;;;;;;;5031505;28;20174;-89
2023/02/14 11:19:24;;;;;;;20.43;14.77;;;;;;;;;;5021840;28;20188;-90
2023/02/14 11:21:52;;;;;;;20.40;15.17;;;;;;;;;;5014220;28;20171;-91
2023/02/14 11:24:19;;;;;;;20.23;14.80;;;;;;;;;;5014794;28;20211;-91
2023/02/14 11:26:47;;;;;;;19.00;13.93;;;;;;;;;;5018334;28;20632;-89
2023/02/14 11:29:14;;;;;;;21.57;14.77;;;;;;;;;;5031734;28;20551;-86
2023/02/14 11:31:41;;;;;;;21.50;15.80;;;;;;;;;;5009383;28;20173;-89
2023/02/14 11:34:30;;;;;;;20.13;14.73;;;;;;;;;;5012582;28;20187;-89
2023/02/14 11:36:56;;;;;;;20.67;14.83;;;;;;;;;;4999863;28;20246;-89
2023/02/14 11:39:28;;;;;;;20.37;14.37;;;;;;;;;;5027498;28;20168;-89
2023/02/14 11:41:56;;;;;;;19.20;13.93;;;;;;;;;;5019988;28;20631;-89
2023/02/14 11:44:27;;;;;;;18.17;14.07;;;;;;;;;;5016396;28;20656;-90
2023/02/14 11:46:55;;;;;;;53.60;37.13;;;;;;;;;;5042947;28;20172;-89
2023/02/14 11:49:26;;;;;;;27.67;20.37;;;;;;;;;;5032827;28;20183;-90
2023/02/14 11:51:52;;;;;;;23.43;18.50;;;;;;;;;;5025540;28;20267;-90
2023/02/14 11:54:24;;;;;;;25.97;19.70;;;;;;;;;;5017161;28;20633;-89
2023/02/14 11:56:55;;;;;;;20.57;14.57;;;;;;;;;;5024686;28;20206;-90
2023/02/14 11:59:25;;;;;;;19.10;14.23;;;;;;;;;;5027145;28;20263;-90
2023/02/14 12:01:52;;;;;;;18.97;13.93;;;;;;;;;;5034441;28;20183;-91
2023/02/14 12:04:39;;;;;;;21.73;15.43;;;;;;;;;;5027500;28;20680;-90
2023/02/14 12:07:31;;;;;;;19.60;14.53;;;;;;;;;;5020770;28;20576;-91
2023/02/14 12:10:16;;;;;;;22.00;16.20;;;;;;;;;;5009630;28;20202;-91
2023/02/14 12:13:02;;;;;;;21.70;15.73;;;7.20;99.90;;;;;;5017554;28;20171;-93
2023/02/14 12:15:28;;;;;;;19.30;14.53;;;;;;;;;;5017700;28;20523;-92
2023/02/14 12:18:13;;;;;;;24.90;16.93;;;;;;;;;;5021647;28;20220;-92
2023/02/14 12:20:57;;;;;;;21.37;16.27;;;;;;;;;;5019544;28;20182;-92
2023/02/14 12:23:50;;;;;;;26.07;17.17;;;;;;;;;;5010508;28;20199;-93
2023/02/14 12:26:33;;;;;;;22.40;15.83;;;;;;;;;;5021690;28;20169;-92
2023/02/14 12:29:05;;;;;;;20.93;15.40;;;;;;;;;;5030512;28;20227;-92
2023/02/14 12:31:31;;;;;;;22.30;14.77;;;;;;;;;;5037446;28;20580;-92
2023/02/14 12:33:58;;;;;;;23.40;16.20;;;;;;;;;;5037757;28;20167;-92
2023/02/14 12:36:38;;;;;;;22.70;16.43;;;;;;;;;;5037151;28;20266;-91
2023/02/14 12:39:17;;;;;;;25.00;16.63;;;;;;;;;;5037060;28;20174;-92
2023/02/14 12:41:50;;;;;;;21.50;15.37;;;;;;;;;;5031728;28;20176;-92
2023/02/14 12:44:22;;;;;;;19.20;13.90;;;;;;;;;;5020942;28;20206;-91
2023/02/14 12:46:48;;;;;;;19.70;14.07;;;;;;;;;;5017173;28;20179;-90
2023/02/14 12:49:48;;;;;;;18.97;13.97;;;;;;;;;;5017078;28;20179;-92
2023/02/14 12:52:15;;;;;;;19.17;13.93;;;;;;;;;;4950660;28;20181;-90
2023/02/14 12:54:41;;;;;;;19.30;14.53;;;;;;;;;;4957636;28;20181;-90
2023/02/14 12:57:41;;;;;;;20.33;14.80;;;6.60;99.90;;;;;;4956473;28;20655;-91
2023/02/14 13:00:16;;;;;;;18.10;13.53;;;;;;;;;;4955580;28;20177;-90
2023/02/14 13:03:17;;;;;;;18.93;13.33;;;6.70;99.90;;;;;;4965942;28;20775;-92
2023/02/14 13:06:01;;;;;;;16.60;12.40;;;;;;;;;;4959927;28;20193;-90
2023/02/14 13:08:30;;;;;;;17.73;13.67;;;;;;;;;;4967295;28;20650;-89
2023/02/14 13:11:06;;;;;;;17.77;13.63;;;;;;;;;;4959513;28;20169;-91
2023/02/14 13:13:44;;;;;;;18.10;13.13;;;;;;;;;;4957911;28;20193;-88
2023/02/14 13:16:16;;;;;;;16.73;12.63;;;;;;;;;;4980877;28;20186;-91
2023/02/14 13:19:00;;;;;;;18.80;14.00;;;;;;;;;;4982819;28;20186;-92
2023/02/14 13:21:30;;;;;;;18.00;13.00;;;;;;;;;;4968753;28;20208;-91
2023/02/14 13:24:12;;;;;;;16.37;12.03;;;;;;;;;;4973606;28;20232;-94
2023/02/14 13:26:41;;;;;;;17.60;12.90;;;;;;;;;;4973613;28;20261;-92
2023/02/14 13:29:10;;;;;;;17.40;13.27;;;;;;;;;;5012471;28;20183;-93
2023/02/14 13:31:37;;;;;;;16.67;12.53;;;;;;;;;;5016516;28;20172;-91
2023/02/14 13:34:08;;;;;;;17.27;12.77;;;;;;;;;;5016772;28;20179;-93
2023/02/14 13:36:35;;;;;;;18.27;13.63;;;;;;;;;;5016474;28;20172;-91
2023/02/14 13:39:01;;;;;;;18.07;13.47;;;;;;;;;;5016175;28;20172;-91
2023/02/14 13:41:27;;;;;;;18.53;13.33;;;;;;;;;;5029319;28;20213;-91
2023/02/14 13:44:00;;;;;;;16.83;13.00;;;;;;;;;;5027674;28;20216;-90
2023/02/14 13:46:32;;;;;;;18.23;13.27;;;;;;;;;;5009314;28;20203;-92
2023/02/14 13:49:00;;;;;;;18.40;13.13;;;;;;;;;;5019534;28;20172;-89
2023/02/14 13:51:46;;;;;;;17.50;13.07;;;;;;;;;;5035585;28;20175;-90
2023/02/14 13:54:32;;;;;;;17.27;12.77;;;;;;;;;;5035409;28;20182;-90
2023/02/14 13:57:00;;;;;;;18.83;13.30;;;6.70;99.90;;;;;;5035582;28;20519;-90
2023/02/14 13:59:31;;;;;;;17.60;13.70;;;;;;;;;;5029767;28;20171;-90
2023/02/14 14:02:17;;;;;;;17.33;13.40;;;;;;;;;;5034978;28;20627;-88
2023/02/14 14:04:43;;;;;;;21.07;15.97;;;;;;;;;;5025740;28;20622;-89
2023/02/14 14:07:12;;;;;;;19.63;14.53;;;;;;;;;;5019823;28;20164;-89
2023/02/14 14:09:44;;;;;;;18.40;14.13;;;;;;;;;;5032980;28;20168;-89
2023/02/14 14:12:28;;;;;;;18.07;13.83;;;;;;;;;;5037347;28;20275;-90
2023/02/14 14:15:14;;;;;;;18.97;14.10;;;;;;;;;;5031652;28;20176;-88
2023/02/14 14:17:43;;;;;;;26.17;17.93;;;;;;;;;;5034544;28;20229;-89
2023/02/14 14:20:15;;;;;;;21.40;15.10;;;;;;;;;;5026795;28;20179;-90
2023/02/14 14:22:47;;;;;;;19.27;14.77;;;;;;;;;;5015381;28;20200;-89
2023/02/14 14:25:13;;;;;;;22.17;15.70;;;;;;;;;;5015119;28;20179;-88
2023/02/14 14:27:41;;;;;;;19.63;14.07;;;;;;;;;;5025173;28;20201;-87
2023/02/14 14:30:17;;;;;;;21.43;14.70;;;;;;;;;;5020104;28;20245;-89
2023/02/14 14:32:44;;;;;;;18.70;13.90;;;;;;;;;;5019657;28;20635;-89
2023/02/14 14:35:24;;;;;;;19.00;14.10;;;;;;;;;;5029850;28;20222;-87
2023/02/14 14:37:51;;;;;;;20.47;14.13;;;;;;;;;;5027982;28;20199;-87
2023/02/14 14:40:38;;;;;;;19.23;14.20;;;;;;;;;;5018099;28;20197;-89
2023/02/14 14:43:16;;;;;;;17.57;13.40;;;;;;;;;;5009182;28;20647;-89
2023/02/14 14:45:45;;;;;;;18.53;14.33;;;;;;;;;;5014964;28;20635;-89
2023/02/14 14:48:13;;;;;;;19.30;14.87;;;;;;;;;;5014662;28;20772;-90